Time;durP1;ratioP1;P1;durP2;ratioP2;P2;SDS_P1;SDS_P2;PMS_P1;PMS_P2;Temp;Humidity;BMP_temperature;BMP_pressure;BME280_temperature;BME280_humidity;BME280_pressure;Samples;Min_cycle;Max_cycle;Signal;HPM_P1;HPM_P2
2022/05/16 00:01:22;;;;;;;2.37;1.60;;;17.00;99.90;;;;;;5072037;28;20523;-72
2022/05/16 00:03:49;;;;;;;3.20;2.00;;;17.00;99.90;;;;;;5071203;28;20500;-72
2022/05/16 00:06:16;;;;;;;2.13;1.57;;;16.80;99.90;;;;;;5072318;28;20809;-72
2022/05/16 00:08:43;;;;;;;2.60;1.43;;;16.60;99.90;;;;;;5071349;28;20446;-72
2022/05/16 00:11:09;;;;;;;8.10;2.00;;;16.60;99.90;;;;;;5071038;28;20877;-72
2022/05/16 00:13:38;;;;;;;2.60;1.60;;;16.60;99.90;;;;;;5071257;28;20526;-72
2022/05/16 00:16:05;;;;;;;2.37;1.70;;;16.60;99.90;;;;;;5071812;28;20442;-72
2022/05/16 00:18:32;;;;;;;3.70;1.63;;;16.70;99.90;;;;;;5071913;28;20529;-72
2022/05/16 00:20:59;;;;;;;2.90;1.80;;;16.60;99.90;;;;;;5070977;28;20451;-72
2022/05/16 00:23:26;;;;;;;2.60;1.80;;;16.80;99.90;;;;;;5071629;28;20452;-72
2022/05/16 00:25:52;;;;;;;2.00;1.77;;;16.70;99.90;;;;;;5070997;28;20537;-71
2022/05/16 00:28:19;;;;;;;2.70;1.60;;;16.50;99.90;;;;;;5071010;28;20463;-71
2022/05/16 00:30:48;;;;;;;1.97;1.60;;;16.70;99.90;;;;;;5070016;28;20492;-72
2022/05/16 00:33:15;;;;;;;1.97;1.80;;;16.60;99.90;;;;;;5071262;28;20494;-72
2022/05/16 00:35:42;;;;;;;6.43;1.60;;;16.50;99.90;;;;;;5070641;28;20447;-72
2022/05/16 00:38:09;;;;;;;3.47;1.40;;;16.40;99.90;;;;;;5071234;28;20571;-73
2022/05/16 00:40:35;;;;;;;3.30;2.10;;;16.40;1.00;;;;;;5070372;28;20455;-72
2022/05/16 00:43:03;;;;;;;3.10;1.67;;;16.60;99.90;;;;;;5070799;28;20459;-72
2022/05/16 00:45:30;;;;;;;1.83;1.70;;;16.50;99.90;;;;;;5071424;28;20802;-72
2022/05/16 00:47:59;;;;;;;4.60;1.70;;;16.50;99.90;;;;;;5070754;28;20687;-72
2022/05/16 00:50:27;;;;;;;1.50;1.30;;;16.30;1.00;;;;;;5070845;28;20502;-72
2022/05/16 00:52:56;;;;;;;3.00;1.90;;;16.40;99.90;;;;;;5070499;28;20865;-71
2022/05/16 00:55:26;;;;;;;1.77;1.67;;;16.30;1.00;;;;;;5070662;28;20522;-71
2022/05/16 00:58:04;;;;;;;3.40;1.90;;;16.20;1.00;;;;;;5070616;28;20510;-72
2022/05/16 01:00:34;;;;;;;5.20;1.30;;;16.10;1.00;;;;;;5067760;28;22307;-71
2022/05/16 01:05:52;;;;;;;1.87;1.67;;;16.00;1.00;;;;;;5070250;28;20567;-72
2022/05/16 01:08:24;;;;;;;1.50;1.23;;;16.10;1.00;;;;;;5071079;28;20461;-72
2022/05/16 01:10:51;;;;;;;2.80;1.70;;;16.00;1.00;;;;;;5069603;28;20523;-72
2022/05/16 01:13:18;;;;;;;2.80;1.70;;;16.00;1.00;;;;;;5070798;28;20460;-72
2022/05/16 01:15:47;;;;;;;2.60;1.60;;;16.00;1.00;;;;;;5070057;28;20965;-72
2022/05/16 01:18:18;;;;;;;1.57;1.47;;;16.10;1.00;;;;;;5071018;28;20453;-72
2022/05/16 01:21:00;;;;;;;1.67;1.57;;;16.10;1.00;;;;;;5070270;28;20456;-72
2022/05/16 01:23:35;;;;;;;2.10;1.90;;;16.00;1.00;;;;;;5060826;28;20437;-72
2022/05/16 01:26:08;;;;;;;1.63;1.47;;;15.90;1.00;;;;;;5069539;28;20469;-73
2022/05/16 01:28:35;;;;;;;2.37;1.80;;;15.90;1.00;;;;;;5070602;28;20462;-72
2022/05/16 01:31:02;;;;;;;2.83;1.57;;;15.90;1.00;;;;;;5068837;28;20573;-72
2022/05/16 01:33:29;;;;;;;2.30;1.40;;;15.80;1.00;;;;;;5063002;28;20451;-72
2022/05/16 01:35:56;;;;;;;4.73;1.67;;;15.80;1.00;;;;;;5069592;28;20618;-72
2022/05/16 01:38:26;;;;;;;1.80;1.50;;;16.00;1.00;;;;;;5070288;28;20955;-72
2022/05/16 01:40:56;;;;;;;2.07;1.30;;;16.10;1.00;;;;;;5067546;28;20782;-72
2022/05/16 01:43:26;;;;;;;2.60;1.60;;;16.30;1.00;;;;;;5070123;28;20466;-72
2022/05/16 01:45:53;;;;;;;2.87;1.63;;;16.10;1.00;;;;;;5070029;28;20453;-72
2022/05/16 01:48:21;;;;;;;1.67;1.57;;;15.90;1.00;;;;;;5070958;28;20448;-72
2022/05/16 01:50:49;;;;;;;3.80;1.47;;;15.70;1.00;;;;;;5070052;28;20473;-72
2022/05/16 01:53:18;;;;;;;1.67;1.57;;;15.70;1.00;;;;;;5070225;28;20452;-72
2022/05/16 01:55:45;;;;;;;2.10;1.67;;;15.90;1.00;;;;;;5069908;28;20456;-71
2022/05/16 01:58:13;;;;;;;1.63;1.53;;;16.00;1.00;;;;;;5070588;28;20445;-72
2022/05/16 02:00:40;;;;;;;1.80;1.60;;;16.20;1.00;;;;;;5070127;28;20877;-72
2022/05/16 02:03:07;;;;;;;2.07;1.60;;;16.30;1.00;;;;;;5069437;28;21020;-72
2022/05/16 02:05:35;;;;;;;1.20;1.10;;;16.00;1.00;;;;;;5070531;28;20456;-73
2022/05/16 02:08:02;;;;;;;2.50;2.20;;;15.80;1.00;;;;;;5073130;28;20568;-71
2022/05/16 02:10:30;;;;;;;2.30;1.70;;;15.70;1.00;;;;;;5067195;28;20504;-72
2022/05/16 02:12:58;;;;;;;1.83;1.60;;;15.60;45.50;;;;;;5072472;28;20490;-72
2022/05/16 02:15:29;;;;;;;2.13;1.83;;;15.70;93.20;;;;;;5073788;28;20515;-72
2022/05/16 02:17:57;;;;;;;4.77;1.70;;;15.80;30.10;;;;;;5073265;28;20473;-72
2022/05/16 02:20:24;;;;;;;2.10;1.87;;;16.00;1.00;;;;;;5073052;28;20449;-72
2022/05/16 02:25:38;;;;;;;1.40;1.30;;;15.90;1.00;;;;;;5069310;28;20966;-72
2022/05/16 02:28:05;;;;;;;1.30;1.20;;;16.20;1.00;;;;;;5074146;28;20542;-72
2022/05/16 02:30:35;;;;;;;4.93;1.87;;;16.20;1.00;;;;;;5073454;28;20945;-72
2022/05/16 02:33:02;;;;;;;1.90;1.70;;;16.10;1.00;;;;;;5074010;28;20504;-72
2022/05/16 02:35:29;;;;;;;2.00;1.60;;;15.80;1.00;;;;;;5073933;28;20492;-72
2022/05/16 02:37:58;;;;;;;3.70;1.93;;;15.90;1.00;;;;;;5073169;28;20450;-72
2022/05/16 02:40:26;;;;;;;2.00;1.60;;;15.90;1.00;;;;;;5073887;28;20450;-73
2022/05/16 02:42:53;;;;;;;5.47;1.97;;;16.00;1.00;;;;;;5073029;28;20534;-73
2022/05/16 02:45:20;;;;;;;1.93;1.60;;;16.20;1.00;;;;;;5073460;28;20902;-73
2022/05/16 02:47:49;;;;;;;3.17;1.60;;;16.10;1.00;;;;;;5072931;28;20460;-72
2022/05/16 02:50:16;;;;;;;2.20;1.63;;;16.00;1.00;;;;;;5073154;28;20446;-73
2022/05/16 02:52:43;;;;;;;1.90;1.60;;;15.90;1.00;;;;;;5072535;28;20475;-71
2022/05/16 02:55:11;;;;;;;1.87;1.77;;;15.80;1.00;;;;;;5070851;28;20859;-73
2022/05/16 02:57:38;;;;;;;2.27;1.73;;;15.70;1.00;;;;;;5072443;28;20445;-73
2022/05/16 03:00:08;;;;;;;2.63;1.50;;;15.70;1.00;;;;;;5073095;28;20466;-73
2022/05/16 03:02:36;;;;;;;2.13;1.50;;;15.60;1.00;;;;;;5072417;28;20905;-71
2022/05/16 03:05:06;;;;;;;2.67;1.63;;;15.70;1.00;;;;;;5073117;28;20453;-73
2022/05/16 03:07:33;;;;;;;5.20;1.57;;;15.80;1.00;;;;;;5073015;28;20525;-72
2022/05/16 03:10:00;;;;;;;1.73;1.63;;;15.90;1.00;;;;;;5072520;28;20456;-72
2022/05/16 03:12:27;;;;;;;1.60;1.50;;;15.90;1.00;;;;;;5072277;28;20559;-72
2022/05/16 03:14:54;;;;;;;2.43;1.73;;;16.00;1.00;;;;;;5072251;28;20970;-72
2022/05/16 03:17:23;;;;;;;1.90;1.60;;;16.20;1.00;;;;;;5072909;28;20476;-72
2022/05/16 03:19:50;;;;;;;2.23;1.90;;;16.40;99.90;;;;;;5071979;28;20813;-73
2022/05/16 03:22:18;;;;;;;3.00;1.70;;;16.50;99.90;;;;;;5072938;28;21133;-73
2022/05/16 03:24:45;;;;;;;3.67;2.00;;;16.50;99.90;;;;;;5072330;28;20446;-71
2022/05/16 03:27:12;;;;;;;2.00;1.73;;;16.40;99.90;;;;;;5072180;28;20447;-74
2022/05/16 03:29:41;;;;;;;2.83;1.93;;;16.40;99.90;;;;;;5072106;28;20486;-73
2022/05/16 03:32:09;;;;;;;2.40;1.50;;;16.40;99.90;;;;;;5072127;28;20482;-72
2022/05/16 03:34:36;;;;;;;3.73;1.80;;;16.40;1.00;;;;;;5072477;28;20469;-71
2022/05/16 03:37:03;;;;;;;1.50;1.40;;;16.40;1.00;;;;;;5072782;28;20452;-72
2022/05/16 03:42:15;;;;;;;2.60;1.63;;;16.50;1.00;;;;;;5069056;28;20456;-73
2022/05/16 03:44:42;;;;;;;2.20;2.00;;;16.40;1.00;;;;;;5071535;28;20453;-72
2022/05/16 03:47:09;;;;;;;1.97;1.70;;;16.40;1.00;;;;;;5071885;28;20554;-72
2022/05/16 03:49:36;;;;;;;1.80;1.70;;;16.50;1.00;;;;;;5070940;28;20934;-72
2022/05/16 03:52:03;;;;;;;3.60;1.80;;;16.50;1.00;;;;;;5071524;28;20481;-72
2022/05/16 03:54:31;;;;;;;5.27;1.60;;;16.50;1.00;;;;;;5071875;28;20505;-72
2022/05/16 03:56:58;;;;;;;3.33;1.30;;;16.60;1.00;;;;;;5071593;28;20446;-72
2022/05/16 03:59:25;;;;;;;2.20;1.80;;;16.60;1.00;;;;;;5072195;28;20482;-72
2022/05/16 04:01:52;;;;;;;2.60;1.93;;;16.40;1.00;;;;;;5070458;28;20541;-72
2022/05/16 04:04:19;;;;;;;1.67;1.53;;;16.30;1.00;;;;;;5072127;28;20467;-73
2022/05/16 04:06:46;;;;;;;1.63;1.53;;;16.30;1.00;;;;;;5071698;28;20461;-72
2022/05/16 04:09:13;;;;;;;2.33;2.00;;;16.30;1.00;;;;;;5072246;28;20452;-72
2022/05/16 04:11:41;;;;;;;1.97;1.73;;;16.30;1.00;;;;;;5070739;28;20452;-72
2022/05/16 04:14:08;;;;;;;2.10;1.67;;;16.50;1.00;;;;;;5071792;28;20470;-73
2022/05/16 04:16:37;;;;;;;1.90;1.30;;;16.50;1.00;;;;;;5058044;28;20450;-72
2022/05/16 04:19:04;;;;;;;2.13;1.47;;;16.50;1.00;;;;;;5071735;28;20943;-73
2022/05/16 04:21:31;;;;;;;1.43;1.33;;;16.50;1.00;;;;;;5071252;28;20471;-73
2022/05/16 04:23:58;;;;;;;3.10;1.83;;;16.60;1.00;;;;;;5068472;28;20446;-75
2022/05/16 04:26:25;;;;;;;4.37;2.10;;;16.80;1.00;;;;;;5070825;28;21008;-72
2022/05/16 04:28:54;;;;;;;2.00;1.70;;;17.00;1.00;;;;;;5071788;28;20452;-72
2022/05/16 04:31:21;;;;;;;2.10;1.63;;;17.10;1.00;;;;;;5070322;28;20487;-72
2022/05/16 04:33:48;;;;;;;2.43;1.60;;;17.20;1.00;;;;;;5070491;28;20492;-72
2022/05/16 04:36:14;;;;;;;1.80;1.50;;;17.20;1.00;;;;;;5071582;28;20950;-72
2022/05/16 04:38:41;;;;;;;2.10;1.83;;;17.20;1.00;;;;;;5070974;28;20454;-71
2022/05/16 04:43:54;;;;;;;2.23;2.00;;;17.20;1.00;;;;;;5070537;28;20512;-75
2022/05/16 04:46:21;;;;;;;4.67;2.80;;;17.10;17.40;;;;;;5071359;28;20461;-75
2022/05/16 04:48:48;;;;;;;2.43;2.10;;;16.90;99.90;;;;;;5069374;28;20541;-72
2022/05/16 04:51:15;;;;;;;2.40;1.60;;;16.90;99.90;;;;;;5071227;28;20904;-72
2022/05/16 04:53:42;;;;;;;2.07;1.87;;;16.90;1.00;;;;;;5070810;28;20477;-72
2022/05/16 04:56:09;;;;;;;3.03;2.20;;;16.80;1.00;;;;;;5070872;28;20531;-72
2022/05/16 04:58:36;;;;;;;1.80;1.70;;;16.90;85.10;;;;;;5069933;28;20448;-72
2022/05/16 05:01:05;;;;;;;5.03;3.20;;;16.90;99.90;;;;;;5071530;28;20498;-75
2022/05/16 05:03:31;;;;;;;7.43;5.07;;;16.80;99.90;;;;;;5070242;28;20464;-75
2022/05/16 05:05:58;;;;;;;3.03;2.10;;;16.90;99.90;;;;;;5070879;28;20449;-75
2022/05/16 05:08:25;;;;;;;3.23;2.27;;;16.90;1.00;;;;;;5070202;28;20990;-75
2022/05/16 05:16:24;;;;;;;2.97;2.33;;;17.20;99.90;;;;;;5064473;28;20448;-75
2022/05/16 05:18:52;;;;;;;2.60;2.00;;;17.30;91.00;;;;;;5070134;28;20457;-76
2022/05/16 05:21:19;;;;;;;3.17;1.80;;;17.40;41.40;;;;;;5070532;28;20441;-75
2022/05/16 05:23:46;;;;;;;5.50;2.10;;;17.40;99.90;;;;;;5070246;28;20455;-76
2022/05/16 05:26:14;;;;;;;2.40;2.13;;;17.40;99.90;;;;;;5070688;28;20524;-76
2022/05/16 05:28:42;;;;;;;2.10;1.87;;;17.50;1.00;;;;;;5070226;28;20836;-76
2022/05/16 05:31:14;;;;;;;2.17;1.40;;;17.40;1.00;;;;;;5071098;28;20495;-76
2022/05/16 05:33:43;;;;;;;2.40;2.00;;;17.50;1.00;;;;;;5070395;28;20549;-76
2022/05/16 05:36:10;;;;;;;2.23;2.03;;;17.40;52.30;;;;;;5071049;28;20549;-75
2022/05/16 05:38:38;;;;;;;3.70;2.20;;;17.60;1.00;;;;;;5069650;28;20457;-76
2022/05/16 05:41:05;;;;;;;2.03;1.57;;;17.60;1.00;;;;;;5070789;28;20503;-76
2022/05/16 05:43:32;;;;;;;2.07;1.97;;;17.80;1.00;;;;;;5072779;28;20466;-76
2022/05/16 05:46:00;;;;;;;3.17;2.30;;;17.70;1.00;;;;;;5074358;28;20476;-75
2022/05/16 05:48:27;;;;;;;2.30;1.93;;;17.90;1.00;;;;;;5074482;28;20594;-76
2022/05/16 05:50:55;;;;;;;2.70;2.03;;;18.10;99.90;;;;;;5074472;28;20450;-75
2022/05/16 05:53:22;;;;;;;2.07;1.77;;;18.20;99.90;;;;;;5074796;28;20507;-76
2022/05/16 05:55:50;;;;;;;3.00;2.07;;;18.10;99.90;;;;;;5073865;28;20943;-75
2022/05/16 05:58:17;;;;;;;2.10;1.87;;;18.10;99.90;;;;;;5074007;28;20457;-76
2022/05/16 06:00:45;;;;;;;4.40;1.73;;;17.90;1.00;;;;;;5073591;28;20467;-76
2022/05/16 06:03:12;;;;;;;2.43;2.23;;;17.90;1.00;;;;;;5074324;28;20453;-76
2022/05/16 06:05:40;;;;;;;2.77;1.90;;;17.90;99.90;;;;;;5073572;28;20446;-76
2022/05/16 06:08:08;;;;;;;3.17;2.40;;;18.10;99.90;;;;;;5073548;28;20999;-76
2022/05/16 06:10:35;;;;;;;2.00;1.80;;;18.10;99.90;;;;;;5073991;28;20445;-76
2022/05/16 06:13:03;;;;;;;2.30;2.10;;;18.20;99.90;;;;;;5074486;28;20489;-75
2022/05/16 06:15:30;;;;;;;4.60;2.27;;;18.20;99.90;;;;;;5074685;28;20536;-75
2022/05/16 06:17:57;;;;;;;4.00;1.97;;;18.30;99.90;;;;;;5073434;28;20445;-75
2022/05/16 06:20:24;;;;;;;2.90;1.67;;;18.30;99.90;;;;;;5074367;28;20449;-75
2022/05/16 06:22:51;;;;;;;5.23;2.30;;;18.30;99.90;;;;;;5073751;28;20453;-75
2022/05/16 06:25:33;;;;;;;1.73;1.63;;;18.30;99.90;;;;;;5074381;28;20477;-75
2022/05/16 06:28:02;;;;;;;2.50;2.30;;;18.30;99.90;;;;;;5073961;28;20838;-75
2022/05/16 06:30:30;;;;;;;3.67;2.67;;;18.30;73.50;;;;;;5073937;28;20477;-75
2022/05/16 06:32:57;;;;;;;2.53;1.70;;;18.40;77.90;;;;;;5073323;28;21054;-75
2022/05/16 06:35:24;;;;;;;6.10;2.03;;;18.40;88.50;;;;;;5074021;28;20445;-75
2022/05/16 06:37:52;;;;;;;3.03;2.30;;;18.50;82.80;;;;;;5073195;28;20532;-75
2022/05/16 06:40:22;;;;;;;2.70;2.47;;;18.60;89.00;;;;;;5073903;28;20537;-75
2022/05/16 06:42:49;;;;;;;2.83;2.43;;;18.70;24.60;;;;;;5072905;28;20454;-75
2022/05/16 06:45:16;;;;;;;2.70;1.80;;;18.80;1.00;;;;;;5073790;28;20456;-76
2022/05/16 06:47:44;;;;;;;3.80;2.20;;;19.10;1.00;;;;;;5073012;28;20477;-75
2022/05/16 06:50:11;;;;;;;2.77;2.20;;;19.20;1.00;;;;;;5073742;28;20445;-75
2022/05/16 06:52:38;;;;;;;2.67;2.10;;;;;;;;;;5073137;28;20592;-75
2022/05/16 06:55:06;;;;;;;4.37;2.43;;;;;;;;;;5072866;28;21243;-75
2022/05/16 06:57:35;;;;;;;2.70;2.40;;;;;;;;;;5073054;28;20460;-75
2022/05/16 07:00:02;;;;;;;3.50;2.33;;;;;;;;;;5073477;28;20515;-75
2022/05/16 07:02:29;;;;;;;2.77;2.47;;;19.40;1.00;;;;;;5073319;28;20843;-74
2022/05/16 07:04:58;;;;;;;1.80;1.70;;;20.50;1.00;;;;;;5072843;28;20456;-75
2022/05/16 07:07:25;;;;;;;1.77;1.67;;;20.60;99.90;;;;;;5073134;28;20438;-74
2022/05/16 07:09:52;;;;;;;4.70;1.97;;;20.70;99.90;;;;;;5072610;28;20458;-75
2022/05/16 07:12:19;;;;;;;1.93;1.83;;;20.90;99.90;;;;;;5073213;28;20536;-75
2022/05/16 07:14:48;;;;;;;3.50;2.20;;;21.00;99.90;;;;;;5072638;28;20496;-75
2022/05/16 07:17:15;;;;;;;2.50;1.77;;;21.30;99.90;;;;;;5072652;28;20455;-75
2022/05/16 07:19:42;;;;;;;3.00;2.27;;;21.50;99.90;;;;;;5072482;28;20548;-75
2022/05/16 07:22:10;;;;;;;8.20;2.70;;;21.70;99.90;;;;;;5073376;28;20457;-75
2022/05/16 07:24:40;;;;;;;2.30;1.90;;;21.80;99.90;;;;;;5059497;28;20857;-76
2022/05/16 07:29:52;;;;;;;2.20;2.00;;;22.10;99.90;;;;;;5072414;28;20495;-75
2022/05/16 07:32:20;;;;;;;2.13;1.70;;;22.30;99.90;;;;;;5072960;28;20472;-74
2022/05/16 07:34:47;;;;;;;4.90;2.50;;;22.30;99.90;;;;;;5072331;28;20666;-74
2022/05/16 07:37:14;;;;;;;3.70;2.20;;;22.70;99.90;;;;;;5072174;28;20936;-75
2022/05/16 07:39:42;;;;;;;2.80;2.20;;;22.80;99.90;;;;;;5072472;28;20474;-75
2022/05/16 07:42:10;;;;;;;2.43;2.23;;;22.50;99.90;;;;;;5072450;28;20789;-75
2022/05/16 07:44:40;;;;;;;3.60;2.53;;;22.30;99.90;;;;;;5071902;28;20548;-76
2022/05/16 07:47:09;;;;;;;2.40;2.17;;;22.40;99.90;;;;;;5072653;28;20445;-75
2022/05/16 07:49:36;;;;;;;2.00;1.90;;;22.40;99.90;;;;;;5072190;28;20484;-75
2022/05/16 07:52:03;;;;;;;2.60;2.40;;;22.40;99.90;;;;;;5072615;28;20984;-74
2022/05/16 07:54:30;;;;;;;1.90;1.80;;;22.30;99.90;;;;;;5072419;28;20878;-75
2022/05/16 07:56:57;;;;;;;2.50;2.27;;;22.30;99.90;;;;;;5071667;28;20753;-76
2022/05/16 07:59:24;;;;;;;3.83;2.40;;;22.40;99.90;;;;;;5071958;28;20457;-75
2022/05/16 08:01:51;;;;;;;2.70;2.27;;;22.20;99.90;;;;;;5071282;28;20960;-75
2022/05/16 08:04:20;;;;;;;2.80;2.40;;;;;;;;;;5071943;28;21039;-76
2022/05/16 08:06:47;;;;;;;2.77;2.30;;;;;;;;;;5070500;28;20488;-75
2022/05/16 08:11:59;;;;;;;4.37;3.47;;;;;;;;;;5070841;28;20990;-76
2022/05/16 08:14:27;;;;;;;2.90;2.70;;;;;;;;;;5071471;28;20999;-75
2022/05/16 08:16:54;;;;;;;4.40;2.60;;;;;;;;;;5070898;28;20544;-75
2022/05/16 08:19:22;;;;;;;3.70;3.07;;;;;;;;;;5071464;28;20450;-76
2022/05/16 08:21:49;;;;;;;4.37;3.20;;;;;;;;;;5071462;28;20916;-76
2022/05/16 08:24:16;;;;;;;4.20;3.27;;;;;;;;;;5071813;28;20889;-76
2022/05/16 08:26:44;;;;;;;5.40;3.13;;;;;;;;;;5071498;28;20840;-76
2022/05/16 08:29:11;;;;;;;4.17;2.87;;;;;;;;;;5071236;28;20951;-75
2022/05/16 08:31:39;;;;;;;4.97;3.13;;;;;;;;;;5071080;28;20482;-76
2022/05/16 08:34:06;;;;;;;4.40;2.90;;;;;;;;;;5071427;28;20989;-76
2022/05/16 08:42:08;;;;;;;5.50;3.27;;;;;;;;;;5071524;28;20429;-75
2022/05/16 08:44:38;;;;;;;4.70;3.40;;;;;;;;;;5070975;28;20949;-77
2022/05/16 08:47:23;;;;;;;4.10;3.40;;;;;;;;;;5071197;28;20473;-76
2022/05/16 08:49:54;;;;;;;3.90;3.20;;;;;;;;;;5071184;28;20441;-75
2022/05/16 08:52:32;;;;;;;3.50;3.13;;;22.10;99.90;;;;;;5071305;28;20925;-74
2022/05/16 08:55:04;;;;;;;4.57;3.20;;;21.70;1.00;;;;;;5070896;28;20560;-74
2022/05/16 08:57:35;;;;;;;3.30;2.80;;;22.10;1.00;;;;;;5071192;28;20453;-75
2022/05/16 09:00:08;;;;;;;2.87;2.57;;;22.40;99.90;;;;;;5071195;28;20488;-75
2022/05/16 09:02:36;;;;;;;3.00;2.60;;;22.90;1.00;;;;;;5071638;28;20446;-75
2022/05/16 09:05:10;;;;;;;3.83;3.07;;;23.20;1.00;;;;;;5071507;28;20460;-75
2022/05/16 09:07:45;;;;;;;4.50;2.63;;;23.50;99.90;;;;;;5070139;28;20525;-75
2022/05/16 09:10:14;;;;;;;2.67;2.40;;;23.70;99.90;;;;;;5071145;28;20524;-75
2022/05/16 09:13:05;;;;;;;2.63;2.33;;;23.50;99.90;;;;;;5070572;28;20446;-75
2022/05/16 09:15:42;;;;;;;2.90;2.50;;;23.50;99.90;;;;;;5071129;28;20540;-75
2022/05/16 09:18:22;;;;;;;3.10;2.80;;;23.60;99.90;;;;;;5070623;28;20532;-75
2022/05/16 09:20:58;;;;;;;4.27;2.17;;;24.20;99.90;;;;;;5070326;28;20955;-75
2022/05/16 09:23:41;;;;;;;4.87;2.60;;;24.40;99.90;;;;;;5071237;28;20453;-75
2022/05/16 09:26:16;;;;;;;2.80;2.60;;;24.30;99.90;;;;;;5071170;28;20529;-75
2022/05/16 09:28:49;;;;;;;2.77;2.47;;;24.70;99.90;;;;;;5069907;28;20908;-75
2022/05/16 09:31:22;;;;;;;2.30;2.10;;;24.90;99.90;;;;;;5071035;28;20507;-75
2022/05/16 09:33:52;;;;;;;2.67;2.47;;;25.20;99.90;;;;;;5070010;28;20967;-76
2022/05/16 09:36:23;;;;;;;2.83;2.43;;;25.10;99.90;;;;;;5071003;28;20448;-75
2022/05/16 09:38:52;;;;;;;3.00;2.30;;;24.80;99.90;;;;;;5069895;28;20812;-75
2022/05/16 09:41:26;;;;;;;2.90;2.30;;;25.00;99.90;;;;;;5070650;28;20782;-75
2022/05/16 09:44:03;;;;;;;2.73;2.43;;;24.90;99.90;;;;;;5069718;28;20826;-75
2022/05/16 09:46:37;;;;;;;3.10;2.80;;;24.60;99.90;;;;;;5070993;28;20442;-75
2022/05/16 09:49:07;;;;;;;2.60;2.40;;;24.60;99.90;;;;;;5070364;28;20437;-74
2022/05/16 09:51:40;;;;;;;4.57;2.90;;;24.60;99.90;;;;;;5070601;28;20442;-75
2022/05/16 09:54:18;;;;;;;3.27;2.67;;;24.50;99.90;;;;;;5070638;28;20504;-74
2022/05/16 09:56:56;;;;;;;5.50;2.73;;;24.60;99.90;;;;;;5070093;28;20864;-74
2022/05/16 09:59:40;;;;;;;2.50;2.10;;;24.70;99.90;;;;;;5070357;28;20446;-74
2022/05/16 10:02:22;;;;;;;2.43;2.20;;;24.70;99.90;;;;;;5058247;28;20532;-75
2022/05/16 10:04:55;;;;;;;2.90;2.57;;;25.00;99.90;;;;;;5070195;28;20473;-75
2022/05/16 10:07:27;;;;;;;3.50;2.33;;;25.10;97.20;;;;;;5070051;28;20579;-77
2022/05/16 10:09:57;;;;;;;2.83;2.63;;;25.60;96.00;;;;;;5069826;28;20445;-74
2022/05/16 10:12:26;;;;;;;2.80;2.10;;;25.70;93.40;;;;;;5070387;28;20488;-75
2022/05/16 10:14:54;;;;;;;2.50;2.13;;;25.70;91.40;;;;;;5069902;28;20515;-74
2022/05/16 10:17:28;;;;;;;2.60;2.40;;;25.70;84.80;;;;;;5069941;28;20544;-75
2022/05/16 10:20:00;;;;;;;2.70;2.13;;;25.60;76.80;;;;;;5070066;28;20556;-75
2022/05/16 10:22:29;;;;;;;2.63;2.43;;;25.70;74.40;;;;;;5070439;28;20441;-75
2022/05/16 10:25:00;;;;;;;2.40;2.20;;;25.50;71.90;;;;;;5069452;28;20590;-75
2022/05/16 10:27:31;;;;;;;3.73;2.73;;;25.50;68.30;;;;;;5069304;28;20460;-75
2022/05/16 10:30:03;;;;;;;3.50;2.50;;;25.70;67.10;;;;;;5071792;28;20461;-75
2022/05/16 10:35:26;;;;;;;4.07;2.80;;;25.50;64.50;;;;;;5073635;28;20464;-75
2022/05/16 10:37:55;;;;;;;5.30;2.20;;;25.10;67.60;;;;;;5073293;28;20499;-75
2022/05/16 10:40:29;;;;;;;3.23;2.53;;;25.30;65.50;;;;;;5073552;28;20478;-75
2022/05/16 10:43:11;;;;;;;4.03;2.30;;;25.40;68.80;;;;;;5073184;28;20486;-75
2022/05/16 10:45:41;;;;;;;2.30;2.10;;;25.40;59.60;;;;;;5073455;28;20460;-75
2022/05/16 10:48:15;;;;;;;2.40;2.20;;;25.50;62.60;;;;;;5073335;28;20452;-74
2022/05/16 10:50:48;;;;;;;2.23;2.03;;;25.30;66.10;;;;;;5073365;28;20828;-75
2022/05/16 10:53:20;;;;;;;3.20;2.30;;;25.40;69.40;;;;;;5074089;28;20801;-75
2022/05/16 10:56:02;;;;;;;1.93;1.80;;;25.30;62.10;;;;;;5073017;28;20582;-76
2022/05/16 10:58:35;;;;;;;2.30;1.93;;;;;;;;;;5073239;28;20520;-75
2022/05/16 11:01:04;;;;;;;2.23;2.00;;;;;;;;;;5073995;28;20458;-75
2022/05/16 11:03:57;;;;;;;2.73;1.70;;;25.10;63.90;;;;;;5073386;28;20453;-75
2022/05/16 11:06:45;;;;;;;2.13;1.77;;;24.60;63.90;;;;;;5073585;28;20461;-75
2022/05/16 11:09:18;;;;;;;2.23;2.03;;;24.30;70.50;;;;;;5073028;28;20808;-75
2022/05/16 11:11:53;;;;;;;1.83;1.70;;;24.50;71.30;;;;;;5073120;28;20534;-75
2022/05/16 11:14:25;;;;;;;1.93;1.50;;;24.30;71.20;;;;;;5073324;28;20559;-75
2022/05/16 11:16:55;;;;;;;2.23;1.40;;;24.50;73.50;;;;;;5072520;28;20520;-75
2022/05/16 11:19:31;;;;;;;2.30;1.70;;;24.60;75.10;;;;;;5073329;28;20511;-75
2022/05/16 11:22:05;;;;;;;2.47;1.90;;;24.40;77.60;;;;;;5072700;28;20441;-75
2022/05/16 11:24:41;;;;;;;2.40;1.93;;;24.20;83.40;;;;;;5073330;28;20445;-75
2022/05/16 11:27:21;;;;;;;2.63;2.20;;;24.00;88.00;;;;;;5072499;28;20495;-75
2022/05/16 11:29:58;;;;;;;2.70;1.70;;;23.70;93.80;;;;;;5072543;28;20457;-76
2022/05/16 11:32:34;;;;;;;2.30;1.50;;;;;;;;;;5072525;28;20492;-75
2022/05/16 11:35:05;;;;;;;3.10;1.60;;;;;;;;;;5073137;28;20479;-75
2022/05/16 11:37:41;;;;;;;2.40;1.30;;;;;;;;;;5072362;28;20485;-75
2022/05/16 11:40:14;;;;;;;2.50;1.23;;;;;;;;;;5073005;28;20437;-75
2022/05/16 11:42:49;;;;;;;3.37;1.70;;;;;;;;;;5066616;28;20453;-76
2022/05/16 11:45:26;;;;;;;2.23;1.40;;;;;;;;;;5071747;28;20449;-74
2022/05/16 11:47:57;;;;;;;3.10;1.27;;;;;;;;;;5069361;28;20521;-74
2022/05/16 11:50:27;;;;;;;1.83;1.00;;;;;;;;;;5071237;28;20448;-74
2022/05/16 11:52:57;;;;;;;2.83;1.27;;;;;;;;;;5071555;28;20461;-76
2022/05/16 12:00:58;;;;;;;1.73;1.57;;;;;;;;;;5070844;28;21069;-74
2022/05/16 12:03:34;;;;;;;1.50;0.93;;;;;;;;;;5069507;28;20456;-74
2022/05/16 12:06:14;;;;;;;1.03;0.90;;;;;;;;;;5068032;28;20448;-74
2022/05/16 12:08:42;;;;;;;2.07;1.10;;;;;;;;;;5066584;28;20533;-75
2022/05/16 12:11:12;;;;;;;1.63;1.30;;;;;;;;;;5069918;28;20445;-74
2022/05/16 12:13:57;;;;;;;2.70;1.17;;;;;;;;;;5065896;28;20448;-74
2022/05/16 12:16:28;;;;;;;1.47;1.37;;;;;;;;;;5070753;28;20520;-73
2022/05/16 12:19:12;;;;;;;1.57;1.30;;;;;;;;;;5069636;28;20450;-74
2022/05/16 12:21:39;;;;;;;5.67;1.60;;;;;;;;;;5068834;28;20450;-74
2022/05/16 12:24:07;;;;;;;1.83;1.07;;;;;;;;;;5071125;28;20469;-73
2022/05/16 12:26:58;;;;;;;11.60;1.63;;;;;;;;;;5067800;28;20460;-71
2022/05/16 12:29:32;;;;;;;5.07;1.43;;;;;;;;;;5070117;28;20469;-71
2022/05/16 12:32:00;;;;;;;5.77;1.80;;;;;;;;;;5070501;28;21087;-72
2022/05/16 12:34:43;;;;;;;2.33;1.53;;;;;;;;;;5069517;28;20485;-71
2022/05/16 12:37:12;;;;;;;1.73;1.27;;;;;;;;;;5070673;28;20928;-73
2022/05/16 12:39:43;;;;;;;1.90;1.17;;;;;;;;;;5069716;28;20489;-75
2022/05/16 12:42:16;;;;;;;1.63;1.40;;;;;;;;;;5070426;28;20500;-74
2022/05/16 12:44:47;;;;;;;1.80;1.30;;;;;;;;;;5067167;28;20529;-75
2022/05/16 12:47:49;;;;;;;1.77;1.50;;;23.40;94.30;;;;;;5070500;28;20457;-75
2022/05/16 12:50:44;;;;;;;2.43;1.00;;;18.00;99.90;;;;;;5071308;28;20840;-75
2022/05/16 12:53:46;;;;;;;2.60;1.47;;;18.00;99.90;;;;;;5069192;28;20472;-76
2022/05/16 12:56:22;;;;;;;1.93;1.20;;;17.90;99.90;;;;;;5069120;28;20560;-75
2022/05/16 12:58:56;;;;;;;5.73;1.60;;;18.10;99.90;;;;;;5068262;28;20890;-73
2022/05/16 13:01:32;;;;;;;7.27;1.70;;;18.40;99.90;;;;;;5069425;28;20452;-73
2022/05/16 13:04:10;;;;;;;4.67;1.60;;;18.60;99.90;;;;;;5067876;28;20479;-73
2022/05/16 13:06:54;;;;;;;2.33;1.10;;;18.80;99.90;;;;;;5065333;28;20901;-74
2022/05/16 13:09:41;;;;;;;1.90;1.37;;;19.10;1.00;;;;;;5068440;28;20930;-73
2022/05/16 13:12:19;;;;;;;8.53;1.67;;;19.20;99.90;;;;;;5067254;28;20783;-73
2022/05/16 13:14:58;;;;;;;6.73;1.47;;;19.60;1.00;;;;;;5066502;28;20581;-73
2022/05/16 13:17:33;;;;;;;5.07;1.60;;;20.30;1.00;;;;;;5068932;28;20456;-73
2022/05/16 13:20:03;;;;;;;6.70;1.50;;;20.80;99.90;;;;;;5068433;28;20835;-75
2022/05/16 13:22:30;;;;;;;4.73;1.10;;;21.10;99.90;;;;;;5068584;28;20446;-76
2022/05/16 13:24:57;;;;;;;6.50;1.27;;;21.30;1.00;;;;;;5069706;28;20515;-75
2022/05/16 13:30:14;;;;;;;5.47;1.10;;;21.70;99.90;;;;;;5069117;28;20456;-75
2022/05/16 13:32:43;;;;;;;8.27;1.33;;;;;;;;;;5070644;28;20469;-75
2022/05/16 13:35:11;;;;;;;6.40;1.60;;;;;;;;;;5070752;28;20485;-75
2022/05/16 13:37:43;;;;;;;5.33;1.30;;;;;;;;;;5070001;28;20458;-75
2022/05/16 13:40:15;;;;;;;6.00;1.67;;;;;;;;;;5070305;28;20457;-75
2022/05/16 13:42:43;;;;;;;4.93;1.43;;;;;;;;;;5070093;28;20438;-75
2022/05/16 13:45:11;;;;;;;4.33;1.43;;;;;;;;;;5070254;28;20495;-74
2022/05/16 13:47:40;;;;;;;4.30;1.30;;;;;;;;;;5070068;28;20542;-74
2022/05/16 13:50:10;;;;;;;5.90;1.73;;;;;;;;;;5070128;28;20509;-75
2022/05/16 13:52:40;;;;;;;5.63;1.50;;;;;;;;;;5070379;28;20524;-76
2022/05/16 13:55:10;;;;;;;6.07;1.70;;;;;;;;;;5070567;28;20496;-74
2022/05/16 13:57:38;;;;;;;5.33;1.50;;;;;;;;;;5069386;28;20438;-75
2022/05/16 14:00:14;;;;;;;4.93;1.30;;;;;;;;;;5069417;28;20458;-75
2022/05/16 14:02:41;;;;;;;5.10;1.70;;;;;;;;;;5069207;28;20449;-75
2022/05/16 14:05:22;;;;;;;3.90;1.30;;;21.80;99.90;;;;;;5071633;28;20816;-76